<?xml version="1.0" encoding="utf-8"?>
<gpx xmlns:xsi="http://www.w3.org/2001/XMLSchema-instance" xmlns:xsd="http://www.w3.org/2001/XMLSchema" version="1.1" creator="Shapelink.com" xmlns="http://www.topografix.com/GPX/1/1" xmlns:gpxtpx="http://www.garmin.com/xmlschemas/TrackPointExtension/v1">
  <metadata>
    <name>Cycling 8.69 km, 2020-07-05</name>
    <desc></desc>
    <author><name>Marian Moron</name></author> 
    <time>2020-07-05T16:10:26Z</time>
  </metadata>
  <trk>
    <name>Cycling 8.69 km, 2020-07-05</name>
    <trkseg>
      <trkpt lat="51.228532797446" lon="4.449459111565">
        <ele>6.2</ele>
        <time>2020-07-05T16:10:26Z</time>
      </trkpt>
      <trkpt lat="51.22856934253" lon="4.449435474607">
        <ele>7.2</ele>
        <time>2020-07-05T16:10:29Z</time>
      </trkpt>
      <trkpt lat="51.228851393465" lon="4.448764754969">
        <ele>0</ele>
        <time>2020-07-05T16:11:03Z</time>
      </trkpt>
      <trkpt lat="51.228942169442" lon="4.44862720799">
        <ele>0</ele>
        <time>2020-07-05T16:11:16Z</time>
      </trkpt>
      <trkpt lat="51.228961280174" lon="4.448481279111">
        <ele>0</ele>
        <time>2020-07-05T16:11:25Z</time>
      </trkpt>
      <trkpt lat="51.228922807253" lon="4.448416570843">
        <ele>0</ele>
        <time>2020-07-05T16:11:28Z</time>
      </trkpt>
      <trkpt lat="51.228901349589" lon="4.448295620026">
        <ele>0</ele>
        <time>2020-07-05T16:12:43Z</time>
      </trkpt>
      <trkpt lat="51.228516620379" lon="4.447648285889">
        <ele>0</ele>
        <time>2020-07-05T16:13:12Z</time>
      </trkpt>
      <trkpt lat="51.228382090884" lon="4.447167500105">
        <ele>0</ele>
        <time>2020-07-05T16:13:26Z</time>
      </trkpt>
      <trkpt lat="51.228768161198" lon="4.446515304466">
        <ele>0</ele>
        <time>2020-07-05T16:13:47Z</time>
      </trkpt>
      <trkpt lat="51.229177617013" lon="4.445922285041">
        <ele>0</ele>
        <time>2020-07-05T16:14:07Z</time>
      </trkpt>
      <trkpt lat="51.229578104195" lon="4.445310154884">
        <ele>0</ele>
        <time>2020-07-05T16:14:27Z</time>
      </trkpt>
      <trkpt lat="51.22978220346" lon="4.444924587484">
        <ele>0</ele>
        <time>2020-07-05T16:14:40Z</time>
      </trkpt>
      <trkpt lat="51.22954164293" lon="4.444143897318">
        <ele>0</ele>
        <time>2020-07-05T16:15:07Z</time>
      </trkpt>
      <trkpt lat="51.229519766171" lon="4.444078183222">
        <ele>0</ele>
        <time>2020-07-05T16:15:09Z</time>
      </trkpt>
      <trkpt lat="51.22944441289" lon="4.44372714925">
        <ele>0</ele>
        <time>2020-07-05T16:15:21Z</time>
      </trkpt>
      <trkpt lat="51.229309129024" lon="4.443127089029">
        <ele>0</ele>
        <time>2020-07-05T16:15:44Z</time>
      </trkpt>
      <trkpt lat="51.229309883395" lon="4.443115438188">
        <ele>0</ele>
        <time>2020-07-05T16:15:46Z</time>
      </trkpt>
      <trkpt lat="51.229280630564" lon="4.443066906987">
        <ele>0</ele>
        <time>2020-07-05T16:16:41Z</time>
      </trkpt>
      <trkpt lat="51.22918289761" lon="4.44274395238">
        <ele>0</ele>
        <time>2020-07-05T16:16:52Z</time>
      </trkpt>
      <trkpt lat="51.228769334664" lon="4.442199296518">
        <ele>0</ele>
        <time>2020-07-05T16:17:18Z</time>
      </trkpt>
      <trkpt lat="51.228427772239" lon="4.441572414217">
        <ele>0</ele>
        <time>2020-07-05T16:17:37Z</time>
      </trkpt>
      <trkpt lat="51.228368512206" lon="4.441555901874">
        <ele>0</ele>
        <time>2020-07-05T16:17:40Z</time>
      </trkpt>
      <trkpt lat="51.228038181527" lon="4.440841093442">
        <ele>0</ele>
        <time>2020-07-05T16:18:06Z</time>
      </trkpt>
      <trkpt lat="51.227859311781" lon="4.440502129406">
        <ele>0</ele>
        <time>2020-07-05T16:18:19Z</time>
      </trkpt>
      <trkpt lat="51.226595572718" lon="4.436817194709">
        <ele>0</ele>
        <time>2020-07-05T16:20:42Z</time>
      </trkpt>
      <trkpt lat="51.226591800863" lon="4.43679531795">
        <ele>0</ele>
        <time>2020-07-05T16:20:43Z</time>
      </trkpt>
      <trkpt lat="51.226264739125" lon="4.43654637552">
        <ele>0</ele>
        <time>2020-07-05T16:21:14Z</time>
      </trkpt>
      <trkpt lat="51.225702816549" lon="4.436562887863">
        <ele>0</ele>
        <time>2020-07-05T16:21:32Z</time>
      </trkpt>
      <trkpt lat="51.225154137375" lon="4.436663219206">
        <ele>6.4</ele>
        <time>2020-07-05T16:21:48Z</time>
      </trkpt>
      <trkpt lat="51.224588023849" lon="4.436679731549">
        <ele>6.8</ele>
        <time>2020-07-05T16:22:06Z</time>
      </trkpt>
      <trkpt lat="51.224023670522" lon="4.436732034605">
        <ele>15.4</ele>
        <time>2020-07-05T16:22:24Z</time>
      </trkpt>
      <trkpt lat="51.223479769031" lon="4.436758689047">
        <ele>25</ele>
        <time>2020-07-05T16:22:42Z</time>
      </trkpt>
      <trkpt lat="51.222984817836" lon="4.436663219206">
        <ele>10.4</ele>
        <time>2020-07-05T16:23:03Z</time>
      </trkpt>
      <trkpt lat="51.222814162352" lon="4.436675037685">
        <ele>3.6</ele>
        <time>2020-07-05T16:23:39Z</time>
      </trkpt>
      <trkpt lat="51.222573937098" lon="4.436662297197">
        <ele>2</ele>
        <time>2020-07-05T16:23:51Z</time>
      </trkpt>
      <trkpt lat="51.22254191824" lon="4.436675959694">
        <ele>0.2</ele>
        <time>2020-07-05T16:24:35Z</time>
      </trkpt>
      <trkpt lat="51.222513755056" lon="4.436661794283">
        <ele>0.2</ele>
        <time>2020-07-05T16:24:37Z</time>
      </trkpt>
      <trkpt lat="51.221965411158" lon="4.436865558272">
        <ele>0</ele>
        <time>2020-07-05T16:25:00Z</time>
      </trkpt>
      <trkpt lat="51.221409775007" lon="4.436810908284">
        <ele>9.6</ele>
        <time>2020-07-05T16:25:17Z</time>
      </trkpt>
      <trkpt lat="51.220899736392" lon="4.436510752445">
        <ele>13</ele>
        <time>2020-07-05T16:25:41Z</time>
      </trkpt>
      <trkpt lat="51.220388440492" lon="4.436225935483">
        <ele>15.8</ele>
        <time>2020-07-05T16:26:05Z</time>
      </trkpt>
      <trkpt lat="51.219917377712" lon="4.435729224089">
        <ele>7.4</ele>
        <time>2020-07-05T16:26:24Z</time>
      </trkpt>
      <trkpt lat="51.219643038125" lon="4.435412136812">
        <ele>0</ele>
        <time>2020-07-05T16:26:37Z</time>
      </trkpt>
      <trkpt lat="51.219625771411" lon="4.435331502934">
        <ele>0</ele>
        <time>2020-07-05T16:26:51Z</time>
      </trkpt>
      <trkpt lat="51.219582185531" lon="4.435147017315">
        <ele>0</ele>
        <time>2020-07-05T16:26:59Z</time>
      </trkpt>
      <trkpt lat="51.219406920002" lon="4.434322741269">
        <ele>0</ele>
        <time>2020-07-05T16:27:23Z</time>
      </trkpt>
      <trkpt lat="51.219214052483" lon="4.433526544588">
        <ele>0</ele>
        <time>2020-07-05T16:27:44Z</time>
      </trkpt>
      <trkpt lat="51.219027722846" lon="4.432691455891">
        <ele>0.8</ele>
        <time>2020-07-05T16:28:10Z</time>
      </trkpt>
      <trkpt lat="51.218921859449" lon="4.431849494036">
        <ele>0</ele>
        <time>2020-07-05T16:28:35Z</time>
      </trkpt>
      <trkpt lat="51.218964104225" lon="4.431420759851">
        <ele>0</ele>
        <time>2020-07-05T16:28:55Z</time>
      </trkpt>
      <trkpt lat="51.218995368712" lon="4.431305927821">
        <ele>0</ele>
        <time>2020-07-05T16:29:01Z</time>
      </trkpt>
      <trkpt lat="51.218900653242" lon="4.430839642724">
        <ele>0</ele>
        <time>2020-07-05T16:29:40Z</time>
      </trkpt>
      <trkpt lat="51.218716502899" lon="4.430454913514">
        <ele>0</ele>
        <time>2020-07-05T16:29:53Z</time>
      </trkpt>
      <trkpt lat="51.218626481293" lon="4.430329604109">
        <ele>0</ele>
        <time>2020-07-05T16:30:45Z</time>
      </trkpt>
      <trkpt lat="51.218276704606" lon="4.429661147584">
        <ele>0</ele>
        <time>2020-07-05T16:31:12Z</time>
      </trkpt>
      <trkpt lat="51.218212918347" lon="4.429457048319">
        <ele>0</ele>
        <time>2020-07-05T16:31:22Z</time>
      </trkpt>
      <trkpt lat="51.218207134836" lon="4.429432824628">
        <ele>0</ele>
        <time>2020-07-05T16:31:26Z</time>
      </trkpt>
      <trkpt lat="51.217856184683" lon="4.428770989804">
        <ele>2.2</ele>
        <time>2020-07-05T16:31:52Z</time>
      </trkpt>
      <trkpt lat="51.217614534506" lon="4.428033634061">
        <ele>0</ele>
        <time>2020-07-05T16:32:13Z</time>
      </trkpt>
      <trkpt lat="51.217822237988" lon="4.427237605018">
        <ele>0</ele>
        <time>2020-07-05T16:32:35Z</time>
      </trkpt>
      <trkpt lat="51.217953079447" lon="4.426350129446">
        <ele>12.4</ele>
        <time>2020-07-05T16:32:58Z</time>
      </trkpt>
      <trkpt lat="51.218176373263" lon="4.425576731533">
        <ele>13.8</ele>
        <time>2020-07-05T16:33:20Z</time>
      </trkpt>
      <trkpt lat="51.218376449216" lon="4.424737787162">
        <ele>10</ele>
        <time>2020-07-05T16:33:38Z</time>
      </trkpt>
      <trkpt lat="51.218552636754" lon="4.423888449235">
        <ele>8.2</ele>
        <time>2020-07-05T16:33:58Z</time>
      </trkpt>
      <trkpt lat="51.218966786433" lon="4.423476143574">
        <ele>12.4</ele>
        <time>2020-07-05T16:34:23Z</time>
      </trkpt>
      <trkpt lat="51.219489397898" lon="4.423586533197">
        <ele>0</ele>
        <time>2020-07-05T16:34:43Z</time>
      </trkpt>
      <trkpt lat="51.219869684701" lon="4.4242266589">
        <ele>0</ele>
        <time>2020-07-05T16:35:02Z</time>
      </trkpt>
      <trkpt lat="51.220250977332" lon="4.424898300547">
        <ele>0</ele>
        <time>2020-07-05T16:35:22Z</time>
      </trkpt>
      <trkpt lat="51.220579380174" lon="4.425612773703">
        <ele>0</ele>
        <time>2020-07-05T16:35:43Z</time>
      </trkpt>
      <trkpt lat="51.220720699008" lon="4.425834558777">
        <ele>0</ele>
        <time>2020-07-05T16:35:52Z</time>
      </trkpt>
      <trkpt lat="51.220859084177" lon="4.426201099264">
        <ele>8.8</ele>
        <time>2020-07-05T16:43:16Z</time>
      </trkpt>
      <trkpt lat="51.221230821442" lon="4.426870226341">
        <ele>7.8</ele>
        <time>2020-07-05T16:43:43Z</time>
      </trkpt>
      <trkpt lat="51.221335930468" lon="4.427688718876">
        <ele>2.4</ele>
        <time>2020-07-05T16:44:10Z</time>
      </trkpt>
      <trkpt lat="51.221340205237" lon="4.427730963652">
        <ele>1.6</ele>
        <time>2020-07-05T16:44:12Z</time>
      </trkpt>
      <trkpt lat="51.221282537765" lon="4.428605447279">
        <ele>0</ele>
        <time>2020-07-05T16:44:36Z</time>
      </trkpt>
      <trkpt lat="51.221269964915" lon="4.42948127201">
        <ele>0</ele>
        <time>2020-07-05T16:44:58Z</time>
      </trkpt>
      <trkpt lat="51.221286812534" lon="4.429609682718">
        <ele>0</ele>
        <time>2020-07-05T16:45:05Z</time>
      </trkpt>
      <trkpt lat="51.221321765057" lon="4.430465055613">
        <ele>0</ele>
        <time>2020-07-05T16:45:24Z</time>
      </trkpt>
      <trkpt lat="51.221386640963" lon="4.431334342462">
        <ele>0.2</ele>
        <time>2020-07-05T16:45:40Z</time>
      </trkpt>
      <trkpt lat="51.221521254277" lon="4.432171358996">
        <ele>2.8</ele>
        <time>2020-07-05T16:45:59Z</time>
      </trkpt>
      <trkpt lat="51.221723593343" lon="4.433007202064">
        <ele>2</ele>
        <time>2020-07-05T16:46:18Z</time>
      </trkpt>
      <trkpt lat="51.221933224662" lon="4.433810439541">
        <ele>0</ele>
        <time>2020-07-05T16:46:34Z</time>
      </trkpt>
      <trkpt lat="51.222107484363" lon="4.434637313976">
        <ele>0</ele>
        <time>2020-07-05T16:46:50Z</time>
      </trkpt>
      <trkpt lat="51.222254838165" lon="4.435476090709">
        <ele>0</ele>
        <time>2020-07-05T16:47:05Z</time>
      </trkpt>
      <trkpt lat="51.222468576615" lon="4.436310508854">
        <ele>2.6</ele>
        <time>2020-07-05T16:47:19Z</time>
      </trkpt>
      <trkpt lat="51.222547031199" lon="4.43670982257">
        <ele>3.2</ele>
        <time>2020-07-05T16:47:28Z</time>
      </trkpt>
      <trkpt lat="51.222570584338" lon="4.436768747327">
        <ele>6</ele>
        <time>2020-07-05T16:47:42Z</time>
      </trkpt>
      <trkpt lat="51.222587767233" lon="4.436749636595">
        <ele>5.6</ele>
        <time>2020-07-05T16:47:46Z</time>
      </trkpt>
      <trkpt lat="51.223125633756" lon="4.436668583622">
        <ele>8.2</ele>
        <time>2020-07-05T16:48:09Z</time>
      </trkpt>
      <trkpt lat="51.223676743681" lon="4.436583004423">
        <ele>3</ele>
        <time>2020-07-05T16:48:25Z</time>
      </trkpt>
      <trkpt lat="51.224248053985" lon="4.436495748844">
        <ele>0</ele>
        <time>2020-07-05T16:48:42Z</time>
      </trkpt>
      <trkpt lat="51.224811485303" lon="4.436446127996">
        <ele>0</ele>
        <time>2020-07-05T16:48:59Z</time>
      </trkpt>
      <trkpt lat="51.225336192243" lon="4.436527767702">
        <ele>0</ele>
        <time>2020-07-05T16:49:17Z</time>
      </trkpt>
      <trkpt lat="51.225366367083" lon="4.436499101604">
        <ele>9.6</ele>
        <time>2020-07-05T16:49:21Z</time>
      </trkpt>
      <trkpt lat="51.225382208874" lon="4.436513183196">
        <ele>14</ele>
        <time>2020-07-05T16:49:24Z</time>
      </trkpt>
      <trkpt lat="51.225486312072" lon="4.436603875354">
        <ele>7.6</ele>
        <time>2020-07-05T16:49:35Z</time>
      </trkpt>
      <trkpt lat="51.225527467201" lon="4.436603540078">
        <ele>7.8</ele>
        <time>2020-07-05T16:49:38Z</time>
      </trkpt>
      <trkpt lat="51.226068770303" lon="4.436584177889">
        <ele>2</ele>
        <time>2020-07-05T16:49:58Z</time>
      </trkpt>
      <trkpt lat="51.226610324862" lon="4.436656346048">
        <ele>0</ele>
        <time>2020-07-05T16:50:16Z</time>
      </trkpt>
      <trkpt lat="51.226627340119" lon="4.436678055169">
        <ele>0</ele>
        <time>2020-07-05T16:50:18Z</time>
      </trkpt>
      <trkpt lat="51.226643433367" lon="4.436794815036">
        <ele>2.8</ele>
        <time>2020-07-05T16:51:21Z</time>
      </trkpt>
      <trkpt lat="51.226801516001" lon="4.437345757323">
        <ele>0</ele>
        <time>2020-07-05T16:51:32Z</time>
      </trkpt>
      <trkpt lat="51.226923724103" lon="4.438197526001">
        <ele>0</ele>
        <time>2020-07-05T16:51:45Z</time>
      </trkpt>
      <trkpt lat="51.226955240047" lon="4.4384339794">
        <ele>0</ele>
        <time>2020-07-05T16:51:48Z</time>
      </trkpt>
      <trkpt lat="51.227234524955" lon="4.439202934906">
        <ele>2.6</ele>
        <time>2020-07-05T16:52:02Z</time>
      </trkpt>
      <trkpt lat="51.227326977312" lon="4.439482890366">
        <ele>3</ele>
        <time>2020-07-05T16:52:08Z</time>
      </trkpt>
      <trkpt lat="51.227272578781" lon="4.439550867575">
        <ele>2.2</ele>
        <time>2020-07-05T16:52:12Z</time>
      </trkpt>
      <trkpt lat="51.226985079611" lon="4.439336961487">
        <ele>13.6</ele>
        <time>2020-07-05T17:02:48Z</time>
      </trkpt>
      <trkpt lat="51.227422028058" lon="4.439610965798">
        <ele>12.6</ele>
        <time>2020-07-05T17:02:55Z</time>
      </trkpt>
      <trkpt lat="51.227681112587" lon="4.440313620475">
        <ele>13.6</ele>
        <time>2020-07-05T17:03:18Z</time>
      </trkpt>
      <trkpt lat="51.22771774149" lon="4.440283948549">
        <ele>11.8</ele>
        <time>2020-07-05T17:04:24Z</time>
      </trkpt>
      <trkpt lat="51.227736684584" lon="4.440314207208">
        <ele>11.8</ele>
        <time>2020-07-05T17:04:25Z</time>
      </trkpt>
      <trkpt lat="51.22812510183" lon="4.440939413129">
        <ele>9.4</ele>
        <time>2020-07-05T17:04:44Z</time>
      </trkpt>
      <trkpt lat="51.228359878849" lon="4.441411565556">
        <ele>6.6</ele>
        <time>2020-07-05T17:04:53Z</time>
      </trkpt>
      <trkpt lat="51.22871351121" lon="4.442062336272">
        <ele>4</ele>
        <time>2020-07-05T17:05:13Z</time>
      </trkpt>
      <trkpt lat="51.229114668944" lon="4.442656864439">
        <ele>3.6</ele>
        <time>2020-07-05T17:05:29Z</time>
      </trkpt>
      <trkpt lat="51.229251545371" lon="4.442876889314">
        <ele>2.6</ele>
        <time>2020-07-05T17:05:43Z</time>
      </trkpt>
      <trkpt lat="51.229260933099" lon="4.44287471002">
        <ele>2</ele>
        <time>2020-07-05T17:06:48Z</time>
      </trkpt>
      <trkpt lat="51.229269734094" lon="4.442929611465">
        <ele>2</ele>
        <time>2020-07-05T17:06:49Z</time>
      </trkpt>
      <trkpt lat="51.229429744565" lon="4.443781296324">
        <ele>2.2</ele>
        <time>2020-07-05T17:07:09Z</time>
      </trkpt>
      <trkpt lat="51.228922304339" lon="4.444103748017">
        <ele>2.4</ele>
        <time>2020-07-05T17:07:29Z</time>
      </trkpt>
      <trkpt lat="51.228511172144" lon="4.444707663912">
        <ele>2.6</ele>
        <time>2020-07-05T17:07:45Z</time>
      </trkpt>
      <trkpt lat="51.228212776504" lon="4.445465639129">
        <ele>2.4</ele>
        <time>2020-07-05T17:08:01Z</time>
      </trkpt>
      <trkpt lat="51.227481455729" lon="4.44671864936">
        <ele>4.6</ele>
        <time>2020-07-05T17:08:30Z</time>
      </trkpt>
      <trkpt lat="51.227054314105" lon="4.447339245236">
        <ele>6</ele>
        <time>2020-07-05T17:08:44Z</time>
      </trkpt>
      <trkpt lat="51.226653826923" lon="4.447937126163">
        <ele>8.4</ele>
        <time>2020-07-05T17:08:58Z</time>
      </trkpt>
      <trkpt lat="51.226457522825" lon="4.448236359993">
        <ele>10.6</ele>
        <time>2020-07-05T17:09:05Z</time>
      </trkpt>
      <trkpt lat="51.226413769307" lon="4.448347420168">
        <ele>11</ele>
        <time>2020-07-05T17:09:07Z</time>
      </trkpt>
      <trkpt lat="51.226408907805" lon="4.449121656271">
        <ele>7</ele>
        <time>2020-07-05T17:09:21Z</time>
      </trkpt>
      <trkpt lat="51.226527930785" lon="4.449317457455">
        <ele>5</ele>
        <time>2020-07-05T17:09:25Z</time>
      </trkpt>
      <trkpt lat="51.22668090046" lon="4.449273620118">
        <ele>1.8</ele>
        <time>2020-07-05T17:09:29Z</time>
      </trkpt>
      <trkpt lat="51.227043166178" lon="4.448585801404">
        <ele>0</ele>
        <time>2020-07-05T17:09:45Z</time>
      </trkpt>
      <trkpt lat="51.227439881505" lon="4.447957913275">
        <ele>0</ele>
        <time>2020-07-05T17:10:00Z</time>
      </trkpt>
      <trkpt lat="51.227877751961" lon="4.447407054807">
        <ele>2.8</ele>
        <time>2020-07-05T17:10:13Z</time>
      </trkpt>
      <trkpt lat="51.228113618627" lon="4.447058283948">
        <ele>2.6</ele>
        <time>2020-07-05T17:10:24Z</time>
      </trkpt>
      <trkpt lat="51.228292236916" lon="4.44715702273">
        <ele>7.8</ele>
        <time>2020-07-05T17:10:34Z</time>
      </trkpt>
      <trkpt lat="51.228666488751" lon="4.44779237075">
        <ele>0.2</ele>
        <time>2020-07-05T17:10:48Z</time>
      </trkpt>
      <trkpt lat="51.22867746904" lon="4.447909549712">
        <ele>0</ele>
        <time>2020-07-05T17:10:54Z</time>
      </trkpt>
      <trkpt lat="51.228631452409" lon="4.447757502046">
        <ele>0.8</ele>
        <time>2020-07-05T17:14:13Z</time>
      </trkpt>
      <trkpt lat="51.228610497659" lon="4.447734870916">
        <ele>0.6</ele>
        <time>2020-07-05T17:14:15Z</time>
      </trkpt>
      <trkpt lat="51.228306569965" lon="4.447141683853">
        <ele>10.8</ele>
        <time>2020-07-05T17:14:34Z</time>
      </trkpt>
      <trkpt lat="51.228250159778" lon="4.447132799039">
        <ele>9.8</ele>
        <time>2020-07-05T17:14:37Z</time>
      </trkpt>
      <trkpt lat="51.228190061555" lon="4.447081082716">
        <ele>8.6</ele>
        <time>2020-07-05T17:14:41Z</time>
      </trkpt>
      <trkpt lat="51.228147146227" lon="4.447111509013">
        <ele>8</ele>
        <time>2020-07-05T17:14:43Z</time>
      </trkpt>
      <trkpt lat="51.22776132737" lon="4.44775297582">
        <ele>11.2</ele>
        <time>2020-07-05T17:15:02Z</time>
      </trkpt>
      <trkpt lat="51.227366036966" lon="4.448403495079">
        <ele>16.8</ele>
        <time>2020-07-05T17:15:20Z</time>
      </trkpt>
      <trkpt lat="51.227009387121" lon="4.449052840872">
        <ele>23.8</ele>
        <time>2020-07-05T17:15:39Z</time>
      </trkpt>
      <trkpt lat="51.226629016499" lon="4.449362384439">
        <ele>19.2</ele>
        <time>2020-07-05T17:15:53Z</time>
      </trkpt>
      <trkpt lat="51.226430030193" lon="4.448978241962">
        <ele>10.8</ele>
        <time>2020-07-05T17:16:10Z</time>
      </trkpt>
      <trkpt lat="51.226312432136" lon="4.448852178186">
        <ele>10.4</ele>
        <time>2020-07-05T17:16:17Z</time>
      </trkpt>
      <trkpt lat="51.225971288806" lon="4.449510576431">
        <ele>7.2</ele>
        <time>2020-07-05T17:16:34Z</time>
      </trkpt>
      <trkpt lat="51.225461082553" lon="4.449716435895">
        <ele>6.8</ele>
        <time>2020-07-05T17:16:51Z</time>
      </trkpt>
      <trkpt lat="51.224945763341" lon="4.450019190123">
        <ele>6.8</ele>
        <time>2020-07-05T17:17:09Z</time>
      </trkpt>
      <trkpt lat="51.224908380067" lon="4.450065793487">
        <ele>6.6</ele>
        <time>2020-07-05T17:17:10Z</time>
      </trkpt>
      <trkpt lat="51.224509066351" lon="4.450707763208">
        <ele>6.8</ele>
        <time>2020-07-05T17:17:21Z</time>
      </trkpt>
      <trkpt lat="51.224104555857" lon="4.451343614142">
        <ele>6.4</ele>
        <time>2020-07-05T17:17:34Z</time>
      </trkpt>
      <trkpt lat="51.223710522738" lon="4.451950463702">
        <ele>6.8</ele>
        <time>2020-07-05T17:17:51Z</time>
      </trkpt>
      <trkpt lat="51.223387903407" lon="4.452653453655">
        <ele>6.6</ele>
        <time>2020-07-05T17:18:08Z</time>
      </trkpt>
      <trkpt lat="51.223058997651" lon="4.453351665925">
        <ele>7.2</ele>
        <time>2020-07-05T17:18:25Z</time>
      </trkpt>
      <trkpt lat="51.222736545958" lon="4.454058260095">
        <ele>9</ele>
        <time>2020-07-05T17:18:47Z</time>
      </trkpt>
      <trkpt lat="51.222240924211" lon="4.454316338796">
        <ele>10.6</ele>
        <time>2020-07-05T17:19:05Z</time>
      </trkpt>
      <trkpt lat="51.22169283177" lon="4.454285409585">
        <ele>8.6</ele>
        <time>2020-07-05T17:19:23Z</time>
      </trkpt>
      <trkpt lat="51.221138452904" lon="4.454259174238">
        <ele>8.8</ele>
        <time>2020-07-05T17:19:43Z</time>
      </trkpt>
      <trkpt lat="51.220612907774" lon="4.454439049812">
        <ele>11</ele>
        <time>2020-07-05T17:20:02Z</time>
      </trkpt>
      <trkpt lat="51.22026455601" lon="4.455124940689">
        <ele>13.8</ele>
        <time>2020-07-05T17:20:25Z</time>
      </trkpt>
      <trkpt lat="51.22009943258" lon="4.455318814036">
        <ele>19.4</ele>
        <time>2020-07-05T17:20:31Z</time>
      </trkpt>
      <trkpt lat="51.220316439971" lon="4.45611224469">
        <ele>10.8</ele>
        <time>2020-07-05T17:20:52Z</time>
      </trkpt>
      <trkpt lat="51.220722123931" lon="4.456409634502">
        <ele>18.6</ele>
        <time>2020-07-05T17:21:14Z</time>
      </trkpt>
      <trkpt lat="51.221293350416" lon="4.456343166035">
        <ele>18.2</ele>
        <time>2020-07-05T17:21:32Z</time>
      </trkpt>
      <trkpt lat="51.221659807084" lon="4.456713646015">
        <ele>8.6</ele>
        <time>2020-07-05T17:21:47Z</time>
      </trkpt>
      <trkpt lat="51.221641534542" lon="4.457617047197">
        <ele>6.8</ele>
        <time>2020-07-05T17:22:03Z</time>
      </trkpt>
      <trkpt lat="51.221726778465" lon="4.458492369014">
        <ele>7.6</ele>
        <time>2020-07-05T17:22:19Z</time>
      </trkpt>
      <trkpt lat="51.222025174105" lon="4.459167698697">
        <ele>12.6</ele>
        <time>2020-07-05T17:22:37Z</time>
      </trkpt>
      <trkpt lat="51.222543175525" lon="4.458856394931">
        <ele>13.2</ele>
        <time>2020-07-05T17:22:56Z</time>
      </trkpt>
      <trkpt lat="51.222898568085" lon="4.458490105901">
        <ele>11</ele>
        <time>2020-07-05T17:23:12Z</time>
      </trkpt>
      <trkpt lat="51.223125214661" lon="4.458164720543">
        <ele>7</ele>
        <time>2020-07-05T17:23:37Z</time>
      </trkpt>
      <trkpt lat="51.22355864271" lon="4.457589806022">
        <ele>0</ele>
        <time>2020-07-05T17:23:56Z</time>
      </trkpt>
      <trkpt lat="51.224035908096" lon="4.457074738267">
        <ele>0</ele>
        <time>2020-07-05T17:24:12Z</time>
      </trkpt>
      <trkpt lat="51.224332459718" lon="4.456286923486">
        <ele>0</ele>
        <time>2020-07-05T17:24:25Z</time>
      </trkpt>
      <trkpt lat="51.224622641096" lon="4.455485697665">
        <ele>0</ele>
        <time>2020-07-05T17:24:41Z</time>
      </trkpt>
      <trkpt lat="51.224792793666" lon="4.454800561159">
        <ele>3</ele>
        <time>2020-07-05T17:24:54Z</time>
      </trkpt>
      <trkpt lat="51.224821711221" lon="4.454457573811">
        <ele>11.2</ele>
        <time>2020-07-05T17:25:48Z</time>
      </trkpt>
      <trkpt lat="51.224784327947" lon="4.453554507905">
        <ele>1.6</ele>
        <time>2020-07-05T17:26:10Z</time>
      </trkpt>
      <trkpt lat="51.224833948795" lon="4.452685640151">
        <ele>0</ele>
        <time>2020-07-05T17:26:30Z</time>
      </trkpt>
      <trkpt lat="51.225109964762" lon="4.451920707957">
        <ele>3</ele>
        <time>2020-07-05T17:26:45Z</time>
      </trkpt>
      <trkpt lat="51.225403582719" lon="4.451167426604">
        <ele>2.6</ele>
        <time>2020-07-05T17:27:03Z</time>
      </trkpt>
      <trkpt lat="51.225831059619" lon="4.450676247264">
        <ele>7.4</ele>
        <time>2020-07-05T17:27:21Z</time>
      </trkpt>
      <trkpt lat="51.226248813515" lon="4.450092699386">
        <ele>5.6</ele>
        <time>2020-07-05T17:27:37Z</time>
      </trkpt>
      <trkpt lat="51.22664318191" lon="4.449502613626">
        <ele>7.2</ele>
        <time>2020-07-05T17:27:55Z</time>
      </trkpt>
      <trkpt lat="51.227011901691" lon="4.449341010594">
        <ele>8.6</ele>
        <time>2020-07-05T17:28:09Z</time>
      </trkpt>
      <trkpt lat="51.227311470797" lon="4.448617568805">
        <ele>8.4</ele>
        <time>2020-07-05T17:28:25Z</time>
      </trkpt>
      <trkpt lat="51.227419681126" lon="4.448440375439">
        <ele>7</ele>
        <time>2020-07-05T17:28:29Z</time>
      </trkpt>
      <trkpt lat="51.227819330118" lon="4.447812403491">
        <ele>9.6</ele>
        <time>2020-07-05T17:28:42Z</time>
      </trkpt>
      <trkpt lat="51.228205819527" lon="4.447185018276">
        <ele>10.4</ele>
        <time>2020-07-05T17:28:57Z</time>
      </trkpt>
      <trkpt lat="51.228333392045" lon="4.447079741612">
        <ele>9.6</ele>
        <time>2020-07-05T17:29:02Z</time>
      </trkpt>
      <trkpt lat="51.228675876479" lon="4.447739397142">
        <ele>5.8</ele>
        <time>2020-07-05T17:29:15Z</time>
      </trkpt>
      <trkpt lat="51.229028167736" lon="4.448400393776">
        <ele>4.4</ele>
        <time>2020-07-05T17:29:32Z</time>
      </trkpt>
      <trkpt lat="51.229017271266" lon="4.44852243424">
        <ele>4</ele>
        <time>2020-07-05T17:29:36Z</time>
      </trkpt>
      <trkpt lat="51.22862382488" lon="4.449102042625">
        <ele>0</ele>
        <time>2020-07-05T17:29:51Z</time>
      </trkpt>
      <trkpt lat="51.228500527131" lon="4.449200362312">
        <ele>0</ele>
        <time>2020-07-05T17:29:56Z</time>
      </trkpt>
    </trkseg>
  </trk>
</gpx>